Time;durP1;ratioP1;P1;durP2;ratioP2;P2;SDS_P1;SDS_P2;PMS_P1;PMS_P2;Temp;Humidity;BMP_temperature;BMP_pressure;BME280_temperature;BME280_humidity;BME280_pressure;Samples;Min_cycle;Max_cycle;Signal;HPM_P1;HPM_P2
2021/11/23 00:01:02;;;;;;;5.82;5.22;;;;;;;;;;6177604;28;20522;-81
2021/11/23 00:04:04;;;;;;;7.40;5.43;;;;;;;;;;6161560;28;20014;-83
2021/11/23 00:07:05;;;;;;;5.90;5.35;;;;;;;;;;6177572;28;20366;-83
2021/11/23 00:10:06;;;;;;;6.78;4.70;;;;;;;;;;6194187;28;20081;-83
2021/11/23 00:13:10;;;;;;;5.32;4.82;;;5.20;99.90;;;;;;6176880;28;20429;-83
2021/11/23 00:16:11;;;;;;;5.85;5.25;;;;;;;;;;6161143;28;20034;-83
2021/11/23 00:19:14;;;;;;;6.85;5.28;;;;;;;;;;6194300;28;20033;-83
2021/11/23 00:22:15;;;;;;;5.18;4.68;;;5.20;99.90;;;;;;6177192;28;20077;-83
2021/11/23 00:25:16;;;;;;;5.25;4.53;;;5.20;99.90;;;;;;6177406;28;20057;-86
2021/11/23 00:28:16;;;;;;;6.40;5.20;;;5.20;99.90;;;;;;6181730;28;20400;-82
2021/11/23 00:31:17;;;;;;;5.28;4.78;;;;;;;;;;6181577;28;20053;-83
2021/11/23 00:34:18;;;;;;;5.40;4.90;;;;;;;;;;6165754;28;20027;-84
2021/11/23 00:37:19;;;;;;;5.15;4.65;;;;;;;;;;6181854;28;20487;-85
2021/11/23 00:40:20;;;;;;;6.35;5.03;;;5.40;99.90;;;;;;6181317;28;20030;-85
2021/11/23 00:43:21;;;;;;;5.22;4.72;;;5.10;99.90;;;;;;6165509;28;20046;-83
2021/11/23 00:46:22;;;;;;;5.18;4.63;;;;;;;;;;6165049;28;20051;-84
2021/11/23 00:49:22;;;;;;;5.13;4.63;;;5.20;99.90;;;;;;6181421;28;20531;-83
2021/11/23 00:52:23;;;;;;;5.80;5.20;;;5.30;99.90;;;;;;6165295;28;20461;-85
2021/11/23 00:55:24;;;;;;;5.72;5.03;;;;;;;;;;6181320;28;20026;-83
2021/11/23 00:58:25;;;;;;;5.18;4.63;;;5.30;99.90;;;;;;6181628;28;20408;-82
2021/11/23 01:01:25;;;;;;;5.30;4.70;;;5.10;99.90;;;;;;6181210;28;20041;-83
2021/11/23 01:04:26;;;;;;;5.80;5.25;;;;;;;;;;6180339;28;20137;-85
2021/11/23 01:07:27;;;;;;;5.10;4.60;;;;;;;;;;6165029;28;20484;-83
2021/11/23 01:10:28;;;;;;;6.10;5.00;;;;;;;;;;6180915;28;20393;-83
2021/11/23 01:13:29;;;;;;;5.53;4.70;;;5.00;99.90;;;;;;6181063;28;20018;-83
2021/11/23 01:16:30;;;;;;;5.45;4.82;;;;;;;;;;6180804;28;20480;-83
2021/11/23 01:19:30;;;;;;;5.95;5.13;;;5.10;99.90;;;;;;6180670;28;20487;-84
2021/11/23 01:22:31;;;;;;;5.43;4.78;;;;;;;;;;6164547;28;20042;-85
2021/11/23 01:25:32;;;;;;;7.45;5.30;;;5.00;99.90;;;;;;6164877;28;20023;-82
2021/11/23 01:28:33;;;;;;;5.13;4.28;;;;;;;;;;6180283;28;20034;-82
2021/11/23 01:31:34;;;;;;;5.57;4.57;;;5.00;99.90;;;;;;6164467;28;20117;-83
2021/11/23 01:34:35;;;;;;;5.15;4.60;;;;;;;;;;6180573;28;20529;-83
2021/11/23 01:37:36;;;;;;;5.15;4.65;;;4.90;99.90;;;;;;6179573;28;20642;-83
2021/11/23 01:40:37;;;;;;;5.72;5.20;;;5.50;99.90;;;;;;6164031;28;20026;-83
2021/11/23 01:43:38;;;;;;;4.70;4.25;;;;;;;;;;6164374;28;20092;-83
2021/11/23 01:46:38;;;;;;;5.07;4.57;;;5.00;99.90;;;;;;6180319;28;20057;-83
2021/11/23 01:49:39;;;;;;;5.55;4.68;;;;;;;;;;6182010;28;20431;-84
2021/11/23 01:52:40;;;;;;;5.13;4.60;;;5.10;99.90;;;;;;6180360;28;20456;-83
2021/11/23 01:55:41;;;;;;;5.53;4.70;;;5.10;99.90;;;;;;6163588;28;20362;-83
2021/11/23 01:58:42;;;;;;;4.63;4.22;;;;;;;;;;6163985;28;20026;-83
2021/11/23 02:01:43;;;;;;;5.07;4.47;;;4.90;99.90;;;;;;6179349;28;20041;-83
2021/11/23 02:04:45;;;;;;;4.93;4.43;;;4.90;99.90;;;;;;6164177;28;20471;-83
2021/11/23 02:07:46;;;;;;;6.72;5.53;;;;;;;;;;6180131;28;20457;-83
2021/11/23 02:10:46;;;;;;;4.97;4.47;;;4.80;99.90;;;;;;6179783;28;20106;-83
2021/11/23 02:13:47;;;;;;;5.72;4.90;;;5.20;99.90;;;;;;6179436;28;20030;-84
2021/11/23 02:16:48;;;;;;;5.90;5.30;;;;;;;;;;6163216;28;20389;-84
2021/11/23 02:19:55;;;;;;;5.32;4.65;;;4.80;99.90;;;;;;6179488;28;20031;-83
2021/11/23 02:22:56;;;;;;;6.20;5.13;;;7.20;99.90;;;;;;6180317;28;20165;-84
2021/11/23 02:25:57;;;;;;;5.40;4.70;;;4.80;99.90;;;;;;6179301;28;20063;-83
2021/11/23 02:28:58;;;;;;;5.72;4.90;;;;;;;;;;6179133;28;20072;-83
2021/11/23 02:31:58;;;;;;;5.45;4.72;;;4.80;99.90;;;;;;6179677;28;20030;-83
2021/11/23 02:34:59;;;;;;;5.35;4.75;;;;;;;;;;6179471;28;20076;-83
2021/11/23 02:38:00;;;;;;;6.63;4.93;;;4.70;99.90;;;;;;6178986;28;20033;-83
2021/11/23 02:41:01;;;;;;;5.53;4.80;;;4.90;99.90;;;;;;6162688;28;20031;-83
2021/11/23 02:44:02;;;;;;;5.43;4.90;;;4.70;99.90;;;;;;6178823;28;20380;-84
2021/11/23 02:47:03;;;;;;;5.20;4.47;;;5.90;99.90;;;;;;6178487;28;20141;-84
2021/11/23 02:50:04;;;;;;;5.07;4.40;;;4.50;99.90;;;;;;6162688;28;20081;-84
2021/11/23 02:53:05;;;;;;;4.25;3.85;;;4.70;99.90;;;;;;6162232;28;20027;-83
2021/11/23 02:56:06;;;;;;;6.32;4.45;;;;;;;;;;6162626;28;20033;-84
2021/11/23 02:59:06;;;;;;;5.80;5.22;;;4.40;99.90;;;;;;6178266;28;20037;-84
2021/11/23 03:02:09;;;;;;;4.93;4.43;;;4.40;99.90;;;;;;6162531;28;20042;-83
2021/11/23 03:05:10;;;;;;;5.18;4.28;;;;;;;;;;6162501;28;20038;-83
2021/11/23 03:08:10;;;;;;;4.93;4.32;;;4.40;99.90;;;;;;6178820;28;20034;-83
2021/11/23 03:11:11;;;;;;;4.90;4.40;;;;;;;;;;6178401;28;20396;-83
2021/11/23 03:14:12;;;;;;;5.00;4.40;;;4.20;99.90;;;;;;6161967;28;20042;-84
2021/11/23 03:17:14;;;;;;;5.07;4.57;;;4.10;99.90;;;;;;6177970;28;20030;-84
2021/11/23 03:20:16;;;;;;;5.10;4.45;;;4.20;99.90;;;;;;6162276;28;20034;-84
2021/11/23 03:23:18;;;;;;;5.40;4.20;;;4.10;99.90;;;;;;6161766;28;20051;-86
2021/11/23 03:26:18;;;;;;;4.80;4.30;;;4.30;99.90;;;;;;6177669;28;20064;-84
2021/11/23 03:29:19;;;;;;;5.78;4.47;;;;;;;;;;6160616;28;20030;-86
2021/11/23 03:32:20;;;;;;;5.03;4.53;;;3.90;99.90;;;;;;6178277;28;20026;-84
2021/11/23 03:35:24;;;;;;;5.88;4.43;;;3.10;99.90;;;;;;6161477;28;20120;-84
2021/11/23 03:38:25;;;;;;;5.10;4.57;;;4.10;99.90;;;;;;6161796;28;20041;-84
2021/11/23 03:41:25;;;;;;;6.03;5.13;;;4.40;99.90;;;;;;6161149;28;20145;-84
2021/11/23 03:44:26;;;;;;;8.00;5.47;;;;;;;;;;6161481;28;20033;-85
2021/11/23 03:47:28;;;;;;;21.40;11.07;;;3.90;99.90;;;;;;6160779;28;20061;-83
2021/11/23 03:50:29;;;;;;;16.00;10.30;;;;;;;;;;6143964;28;20023;-83
2021/11/23 03:53:30;;;;;;;7.32;5.95;;;;;;;;;;6191630;28;20023;-85
2021/11/23 03:56:31;;;;;;;5.18;4.63;;;;;;;;;;6191192;28;20073;-83
2021/11/23 03:59:32;;;;;;;5.45;4.93;;;;;;;;;;6159944;28;20026;-84
2021/11/23 04:02:33;;;;;;;5.22;4.57;;;;;;;;;;6159007;28;20645;-84
2021/11/23 04:05:34;;;;;;;4.60;4.20;;;;;;;;;;6160339;28;20073;-83
2021/11/23 04:08:35;;;;;;;5.15;4.65;;;3.80;99.90;;;;;;6177330;28;20057;-85
2021/11/23 04:11:35;;;;;;;5.25;4.75;;;4.00;99.90;;;;;;6177144;28;20038;-84
2021/11/23 04:14:37;;;;;;;5.50;5.00;;;;;;;;;;6176861;28;20026;-84
2021/11/23 04:17:37;;;;;;;5.70;4.93;;;4.20;99.90;;;;;;6177474;28;20069;-84
2021/11/23 04:20:38;;;;;;;5.63;4.85;;;;;;;;;;6160587;28;20031;-85
2021/11/23 04:23:39;;;;;;;4.90;4.40;;;;;;;;;;6177442;28;20030;-85
2021/11/23 04:26:40;;;;;;;5.82;5.22;;;3.90;99.90;;;;;;6177001;28;20031;-84
2021/11/23 04:29:41;;;;;;;5.70;5.05;;;;;;;;;;6177374;28;20042;-84
2021/11/23 04:32:43;;;;;;;6.00;5.40;;;;;;;;;;6177148;28;20042;-85
2021/11/23 04:35:44;;;;;;;5.25;4.75;;;;;;;;;;6160833;28;20431;-84
2021/11/23 04:38:45;;;;;;;6.03;5.18;;;;;;;;;;6161089;28;20026;-84
2021/11/23 04:41:46;;;;;;;6.15;5.55;;;;;;;;;;6161033;28;20440;-84
2021/11/23 04:44:47;;;;;;;5.10;4.55;;;;;;;;;;6160631;28;20023;-84
2021/11/23 04:47:48;;;;;;;7.93;5.00;;;;;;;;;;6176722;28;20030;-83
2021/11/23 04:50:49;;;;;;;5.20;4.70;;;;;;;;;;6161042;28;20026;-84
2021/11/23 04:53:51;;;;;;;7.72;5.25;;;;;;;;;;6176866;28;20366;-84
2021/11/23 04:56:51;;;;;;;5.28;4.78;;;3.90;99.90;;;;;;6177231;28;20074;-86
2021/11/23 04:59:52;;;;;;;5.00;4.28;;;;;;;;;;6160641;28;20424;-85
2021/11/23 05:02:53;;;;;;;5.70;5.03;;;;;;;;;;6194068;28;20510;-85
2021/11/23 05:05:54;;;;;;;4.28;3.88;;;4.20;99.90;;;;;;6177027;28;20085;-84
2021/11/23 05:08:55;;;;;;;5.07;4.47;;;;;;;;;;6176775;28;20031;-84
2021/11/23 05:11:56;;;;;;;4.72;4.20;;;;;;;;;;6176431;28;20034;-84
2021/11/23 05:14:57;;;;;;;4.70;4.18;;;4.20;99.90;;;;;;6164650;28;20023;-84
2021/11/23 05:17:58;;;;;;;4.88;4.35;;;4.20;99.90;;;;;;6181011;28;20073;-83
2021/11/23 05:20:59;;;;;;;5.00;4.35;;;;;;;;;;6180252;28;20117;-84
2021/11/23 05:23:59;;;;;;;5.15;4.63;;;4.30;99.90;;;;;;6180920;28;20026;-83
2021/11/23 05:27:00;;;;;;;5.00;4.05;;;;;;;;;;6180868;28;20031;-84
2021/11/23 05:30:02;;;;;;;7.75;5.43;;;4.30;99.90;;;;;;6180523;28;20035;-85
2021/11/23 05:33:03;;;;;;;4.93;4.28;;;;;;;;;;6180742;28;20105;-83
2021/11/23 05:36:04;;;;;;;5.97;4.90;;;4.40;99.90;;;;;;6163788;28;20065;-84
2021/11/23 05:39:05;;;;;;;4.40;4.00;;;4.50;99.90;;;;;;6180272;28;20031;-84
2021/11/23 05:42:05;;;;;;;4.95;4.30;;;4.70;99.90;;;;;;6164124;28;20496;-85
2021/11/23 05:45:08;;;;;;;5.05;4.55;;;;;;;;;;6164309;28;20092;-84
2021/11/23 05:48:09;;;;;;;6.05;4.95;;;4.40;99.90;;;;;;6164270;28;20076;-83
2021/11/23 05:51:11;;;;;;;6.68;4.53;;;4.50;99.90;;;;;;6180258;28;20027;-85
2021/11/23 05:54:12;;;;;;;5.63;4.03;;;4.60;99.90;;;;;;6164324;28;20060;-83
2021/11/23 05:57:13;;;;;;;6.53;4.63;;;;;;;;;;6182071;28;20564;-83
2021/11/23 06:00:14;;;;;;;4.35;3.95;;;4.60;99.90;;;;;;6180087;28;20030;-84
2021/11/23 06:03:15;;;;;;;7.03;4.60;;;;;;;;;;6163532;28;20042;-83
2021/11/23 06:06:16;;;;;;;4.22;3.83;;;;;;;;;;6163750;28;20469;-85
2021/11/23 06:09:17;;;;;;;4.57;4.05;;;;;;;;;;6180027;28;20560;-83
2021/11/23 06:12:18;;;;;;;4.95;4.35;;;;;;;;;;6179884;28;20027;-84
2021/11/23 06:15:20;;;;;;;5.22;4.72;;;;;;;;;;6163494;28;20038;-84
2021/11/23 06:18:21;;;;;;;5.70;4.45;;;;;;;;;;6179796;28;20117;-82
2021/11/23 06:21:22;;;;;;;5.45;4.70;;;4.50;99.90;;;;;;6179070;28;20031;-82
2021/11/23 06:24:23;;;;;;;6.20;4.57;;;;;;;;;;6179542;28;20034;-84
2021/11/23 06:27:24;;;;;;;4.75;4.25;;;;;;;;;;6196449;28;20026;-83
2021/11/23 06:30:25;;;;;;;5.18;4.53;;;4.40;99.90;;;;;;6179601;28;20109;-85
2021/11/23 06:33:26;;;;;;;6.50;4.47;;;;;;;;;;6179427;28;20023;-83
2021/11/23 06:36:27;;;;;;;4.60;4.10;;;;;;;;;;6177778;28;20065;-83
2021/11/23 06:39:28;;;;;;;5.72;4.40;;;;;;;;;;6178179;28;20034;-82
2021/11/23 06:42:29;;;;;;;5.97;4.82;;;4.40;99.90;;;;;;6178550;28;20132;-83
2021/11/23 06:45:30;;;;;;;7.72;4.82;;;;;;;;;;6177515;28;20496;-85
2021/11/23 06:48:31;;;;;;;5.65;4.65;;;;;;;;;;6163003;28;20459;-83
2021/11/23 06:51:31;;;;;;;5.05;4.55;;;4.20;99.90;;;;;;6179019;28;20378;-82
2021/11/23 06:54:32;;;;;;;6.43;5.00;;;6.30;99.90;;;;;;6177944;28;20030;-82
2021/11/23 06:57:32;;;;;;;6.38;5.05;;;4.20;99.90;;;;;;6178957;28;20088;-85
2021/11/23 07:00:33;;;;;;;5.72;4.75;;;4.20;99.90;;;;;;6163037;28;20085;-85
2021/11/23 07:03:33;;;;;;;6.13;4.93;;;5.60;99.90;;;;;;6177078;28;20070;-84
2021/11/23 07:06:34;;;;;;;7.07;4.93;;;4.50;99.90;;;;;;6178842;28;20491;-81
2021/11/23 07:09:35;;;;;;;5.53;4.85;;;;;;;;;;6178236;28;20548;-85
2021/11/23 07:12:36;;;;;;;6.43;4.40;;;4.10;99.90;;;;;;6176602;28;20058;-82
2021/11/23 07:15:37;;;;;;;5.65;4.88;;;;;;;;;;6160876;28;20030;-82
2021/11/23 07:18:37;;;;;;;6.05;4.82;;;4.20;99.90;;;;;;6193946;28;20037;-83
2021/11/23 07:21:38;;;;;;;5.57;4.50;;;;;;;;;;6161639;28;20030;-86
2021/11/23 07:24:39;;;;;;;6.03;4.97;;;;;;;;;;6178129;28;20596;-84
2021/11/23 07:27:42;;;;;;;6.95;5.82;;;;;;;;;;6178489;28;20394;-83
2021/11/23 07:30:44;;;;;;;8.00;6.88;;;4.50;99.90;;;;;;6161977;28;20057;-85
2021/11/23 07:33:44;;;;;;;9.93;6.72;;;4.50;99.90;;;;;;6161918;28;20031;-84
2021/11/23 07:36:45;;;;;;;8.18;6.25;;;;;;;;;;6161005;28;20057;-83
2021/11/23 07:39:47;;;;;;;8.27;6.20;;;;;;;;;;6177650;28;20049;-87
2021/11/23 07:42:48;;;;;;;9.43;6.80;;;;;;;;;;6177868;28;20166;-84
2021/11/23 07:45:49;;;;;;;7.72;5.75;;;;;;;;;;6161653;28;20054;-84
2021/11/23 07:48:50;;;;;;;6.78;5.80;;;;;;;;;;6177333;28;20037;-84
2021/11/23 07:51:51;;;;;;;6.05;5.45;;;5.30;99.90;;;;;;6160878;28;20030;-83
2021/11/23 07:54:52;;;;;;;5.60;4.82;;;;;;;;;;6161486;28;20433;-86
2021/11/23 07:57:53;;;;;;;6.35;4.80;;;;;;;;;;6161399;28;20026;-86
2021/11/23 08:00:54;;;;;;;5.70;4.80;;;;;;;;;;6178033;28;20118;-83
2021/11/23 08:03:54;;;;;;;5.15;4.65;;;6.50;99.90;;;;;;6177356;28;20042;-83
2021/11/23 08:06:55;;;;;;;5.45;4.88;;;;;;;;;;6161045;28;20113;-83
2021/11/23 08:09:56;;;;;;;5.45;4.30;;;;;;;;;;6176927;28;20034;-83
2021/11/23 08:12:57;;;;;;;6.43;5.28;;;5.20;99.90;;;;;;6177356;28;20463;-81
2021/11/23 08:16:03;;;;;;;6.15;5.22;;;5.30;99.90;;;;;;6176994;28;20121;-81
2021/11/23 08:19:03;;;;;;;5.20;4.47;;;5.10;99.90;;;;;;6161418;28;20396;-80
2021/11/23 08:22:04;;;;;;;7.13;5.03;;;;;;;;;;6160568;28;20031;-80
2021/11/23 08:25:06;;;;;;;6.30;4.80;;;5.00;99.90;;;;;;6171928;28;20045;-81
2021/11/23 08:28:07;;;;;;;5.75;5.10;;;;;;;;;;6172841;28;20057;-81
2021/11/23 08:31:08;;;;;;;6.55;5.32;;;5.10;99.90;;;;;;6159554;28;20042;-81
2021/11/23 08:34:10;;;;;;;6.18;5.28;;;4.90;99.90;;;;;;6176105;28;20029;-79
2021/11/23 08:37:11;;;;;;;5.80;4.90;;;4.80;99.90;;;;;;6175888;28;20473;-79
2021/11/23 08:40:12;;;;;;;5.88;4.90;;;5.00;99.90;;;;;;6159765;28;20030;-80
2021/11/23 08:43:13;;;;;;;6.07;5.05;;;;;;;;;;6176024;28;20038;-80
2021/11/23 08:46:14;;;;;;;7.57;5.03;;;5.00;99.90;;;;;;6193395;28;20050;-80
2021/11/23 08:49:14;;;;;;;6.90;5.22;;;4.90;99.90;;;;;;6180301;28;20772;-80
2021/11/23 08:52:16;;;;;;;5.63;5.03;;;;;;;;;;6181232;28;20034;-80
2021/11/23 08:55:17;;;;;;;5.18;4.68;;;4.90;99.90;;;;;;6198246;28;20481;-81
2021/11/23 08:58:17;;;;;;;5.82;5.10;;;5.00;99.90;;;;;;6179802;28;20026;-80
2021/11/23 09:01:24;;;;;;;6.82;5.05;;;5.00;99.90;;;;;;6163865;28;20531;-81
2021/11/23 09:04:24;;;;;;;7.32;5.60;;;5.40;99.90;;;;;;6180360;28;20023;-80
2021/11/23 09:07:26;;;;;;;6.03;5.43;;;4.90;99.90;;;;;;6162873;28;20524;-81
2021/11/23 09:10:27;;;;;;;7.55;6.07;;;5.00;99.90;;;;;;6162368;28;20077;-80
2021/11/23 09:13:28;;;;;;;6.45;5.07;;;4.90;99.90;;;;;;6162990;28;20120;-79
2021/11/23 09:16:29;;;;;;;6.68;5.70;;;4.80;99.90;;;;;;6179855;28;20034;-79
2021/11/23 09:19:29;;;;;;;7.25;5.55;;;4.80;99.90;;;;;;6180365;28;20034;-82
2021/11/23 09:22:31;;;;;;;8.00;7.10;;;5.00;99.90;;;;;;6179334;28;20041;-79
2021/11/23 09:25:31;;;;;;;7.13;5.80;;;7.30;99.90;;;;;;6163449;28;20034;-80
2021/11/23 09:28:32;;;;;;;7.22;5.60;;;5.20;99.90;;;;;;6179964;28;20081;-80
2021/11/23 09:31:32;;;;;;;7.10;5.07;;;5.00;99.90;;;;;;6179897;28;20496;-80
2021/11/23 09:34:33;;;;;;;6.85;5.07;;;5.20;99.90;;;;;;6179973;28;20045;-80
2021/11/23 09:37:35;;;;;;;5.20;4.68;;;5.60;99.90;;;;;;6163407;28;20101;-81
2021/11/23 09:40:35;;;;;;;5.30;4.50;;;5.80;99.90;;;;;;6196897;28;20027;-80
2021/11/23 09:43:37;;;;;;;7.15;5.57;;;5.70;99.90;;;;;;6163135;28;20038;-80
2021/11/23 09:46:38;;;;;;;5.47;4.60;;;6.20;99.90;;;;;;6179698;28;20084;-79
2021/11/23 09:49:38;;;;;;;7.47;5.47;;;6.40;99.90;;;;;;6179478;28;20030;-80
2021/11/23 09:52:40;;;;;;;4.70;4.20;;;;;;;;;;6179401;28;20057;-81
2021/11/23 09:55:42;;;;;;;5.85;5.03;;;;;;;;;;6197318;28;20057;-80
2021/11/23 09:58:42;;;;;;;8.70;5.65;;;7.00;99.90;;;;;;6162327;28;20085;-82
2021/11/23 10:01:54;;;;;;;6.45;5.85;;;7.00;99.90;;;;;;6196431;28;20034;-80
2021/11/23 10:05:06;;;;;;;5.65;4.53;;;7.50;99.90;;;;;;6163120;28;20076;-81
2021/11/23 10:08:17;;;;;;;6.50;4.75;;;8.00;99.90;;;;;;6162989;28;20042;-81
2021/11/23 10:11:25;;;;;;;4.72;4.22;;;8.10;99.90;;;;;;6179424;28;20038;-84
2021/11/23 10:14:25;;;;;;;5.13;4.63;;;8.60;99.90;;;;;;6161689;28;20030;-82
2021/11/23 10:17:26;;;;;;;6.55;5.07;;;;;;;;;;6178650;28;20032;-80
2021/11/23 10:20:37;;;;;;;4.75;4.28;;;9.50;99.90;;;;;;6177503;28;20119;-79
2021/11/23 10:23:52;;;;;;;5.32;4.43;;;9.30;98.60;;;;;;6176971;28;20413;-81
2021/11/23 10:26:53;;;;;;;5.55;4.85;;;9.30;99.40;;;;;;6155385;28;20476;-83
2021/11/23 10:29:54;;;;;;;5.32;4.35;;;9.00;98.60;;;;;;6162349;28;20041;-81
2021/11/23 10:32:54;;;;;;;6.63;5.28;;;9.00;99.90;;;;;;6162563;28;20030;-83
2021/11/23 10:35:58;;;;;;;5.25;4.72;;;8.90;99.90;;;;;;6162158;28;20066;-81
2021/11/23 10:39:19;;;;;;;6.05;5.22;;;9.10;99.90;;;;;;6178889;28;20468;-82
2021/11/23 10:42:19;;;;;;;6.63;4.43;;;9.30;99.90;;;;;;6145887;28;20038;-82
2021/11/23 10:45:20;;;;;;;5.30;4.03;;;;;;;;;;6177048;28;20450;-82
2021/11/23 10:48:24;;;;;;;5.07;4.55;;;12.00;97.60;;;;;;6177002;28;20031;-83
2021/11/23 10:51:25;;;;;;;6.68;5.57;;;;;;;;;;6178401;28;20030;-83
2021/11/23 10:54:26;;;;;;;7.80;5.32;;;;;;;;;;6177840;28;20556;-81
2021/11/23 10:57:27;;;;;;;7.03;4.90;;;;;;;;;;6162243;28;20141;-83
2021/11/23 11:00:30;;;;;;;5.53;4.93;;;;;;;;;;6177361;28;20026;-83
2021/11/23 11:03:31;;;;;;;5.10;4.60;;;9.00;99.90;;;;;;6160921;28;20042;-82
2021/11/23 11:06:32;;;;;;;5.88;5.28;;;9.10;98.40;;;;;;6162057;28;20058;-83
2021/11/23 11:09:33;;;;;;;5.97;5.35;;;10.00;97.40;;;;;;6164634;28;20029;-82
2021/11/23 11:12:34;;;;;;;7.10;4.55;;;10.20;96.80;;;;;;6160959;28;20034;-83
2021/11/23 11:15:35;;;;;;;5.57;4.72;;;9.90;99.90;;;;;;6174463;28;20089;-83
2021/11/23 11:18:36;;;;;;;5.77;5.10;;;10.20;95.20;;;;;;6175683;28;20030;-82
2021/11/23 11:21:49;;;;;;;5.05;4.55;;;9.60;99.90;;;;;;6161090;28;20046;-84
2021/11/23 11:25:06;;;;;;;4.97;4.47;;;9.70;96.10;;;;;;6195427;28;20104;-82
2021/11/23 11:28:07;;;;;;;4.97;4.45;;;9.50;99.90;;;;;;6182198;28;20425;-81
2021/11/23 11:31:08;;;;;;;4.55;4.03;;;9.80;96.30;;;;;;6177616;28;20092;-81
2021/11/23 11:34:18;;;;;;;8.80;6.05;;;9.80;96.10;;;;;;6160325;28;20097;-82
2021/11/23 11:37:19;;;;;;;4.88;4.32;;;9.30;95.90;;;;;;6160948;28;20045;-83
2021/11/23 11:40:27;;;;;;;5.40;4.80;;;9.00;98.10;;;;;;6176915;28;20030;-82
2021/11/23 11:43:34;;;;;;;5.55;4.70;;;8.90;98.80;;;;;;6160916;28;20128;-83
2021/11/23 11:46:36;;;;;;;5.25;4.55;;;9.00;96.50;;;;;;6159986;28;20109;-82
2021/11/23 11:49:52;;;;;;;5.10;4.50;;;8.80;99.90;;;;;;6177083;28;20495;-84
2021/11/23 11:52:57;;;;;;;5.63;4.47;;;9.10;99.90;;;;;;6176434;28;20046;-81
2021/11/23 11:55:58;;;;;;;4.90;4.38;;;8.80;99.90;;;;;;6194505;28;20110;-81
2021/11/23 11:58:58;;;;;;;6.30;5.00;;;9.50;97.60;;;;;;6176595;28;20034;-81
2021/11/23 12:02:04;;;;;;;6.22;4.75;;;9.00;98.50;;;;;;6174947;28;20042;-81
2021/11/23 12:05:05;;;;;;;5.13;4.53;;;8.80;99.90;;;;;;6177202;28;20034;-80
2021/11/23 12:08:20;;;;;;;5.13;4.63;;;9.00;99.90;;;;;;6193578;28;20476;-81
2021/11/23 12:11:27;;;;;;;5.18;4.43;;;8.90;98.30;;;;;;6176657;28;20030;-81
2021/11/23 12:14:31;;;;;;;5.22;4.38;;;8.90;99.90;;;;;;6176844;28;20096;-81
2021/11/23 12:17:58;;;;;;;9.88;5.18;;;8.60;99.90;;;;;;6160158;28;20113;-81
2021/11/23 12:21:12;;;;;;;5.95;4.68;;;8.60;99.90;;;;;;6177007;28;20819;-81
2021/11/23 12:24:12;;;;;;;5.07;4.43;;;8.70;99.90;;;;;;6180730;28;20070;-81
2021/11/23 12:27:15;;;;;;;5.93;4.70;;;8.70;99.90;;;;;;6181327;28;20495;-82
2021/11/23 12:30:20;;;;;;;5.43;4.90;;;8.60;99.90;;;;;;6181288;28;20077;-82
2021/11/23 12:33:24;;;;;;;6.03;4.55;;;8.80;99.90;;;;;;6166227;28;20049;-82
2021/11/23 12:36:25;;;;;;;5.47;4.80;;;9.90;99.90;;;;;;6181743;28;20465;-82
2021/11/23 12:39:28;;;;;;;6.68;4.82;;;8.50;99.90;;;;;;6181317;28;20100;-82
2021/11/23 12:42:38;;;;;;;6.93;5.38;;;8.70;99.90;;;;;;6163357;28;20527;-82
2021/11/23 12:45:41;;;;;;;6.57;5.40;;;8.10;99.90;;;;;;6179912;28;20680;-84
2021/11/23 12:48:42;;;;;;;5.93;5.25;;;8.00;99.90;;;;;;6180017;28;20085;-81
2021/11/23 12:51:44;;;;;;;6.13;5.25;;;7.90;99.90;;;;;;6180642;28;20044;-81
2021/11/23 12:54:45;;;;;;;;;;;8.70;99.90;;;;;;6181296;28;20161;-83
2021/11/23 12:57:52;;;;;;;5.70;4.75;;;5.60;99.90;;;;;;6164842;28;19914;-83
2021/11/23 13:00:52;;;;;;;7.13;5.22;;;7.60;99.90;;;;;;6165921;28;20041;-82
2021/11/23 13:03:54;;;;;;;6.55;5.10;;;7.70;99.90;;;;;;6180827;28;20503;-81
2021/11/23 13:07:08;;;;;;;6.53;5.40;;;7.60;99.90;;;;;;6164426;28;20031;-85
2021/11/23 13:10:21;;;;;;;7.07;5.30;;;7.60;99.90;;;;;;6163064;28;20070;-83
2021/11/23 13:13:28;;;;;;;6.88;4.90;;;7.40;99.90;;;;;;6181420;28;20030;-83
2021/11/23 13:16:29;;;;;;;6.05;5.45;;;7.80;99.90;;;;;;6165538;28;20069;-85
2021/11/23 13:19:41;;;;;;;7.47;5.68;;;7.20;99.90;;;;;;6181155;28;20034;-85
2021/11/23 13:22:42;;;;;;;6.55;5.55;;;8.50;99.90;;;;;;6164093;28;20042;-81
2021/11/23 13:25:43;;;;;;;6.40;5.30;;;7.50;99.90;;;;;;6162254;28;20028;-84
2021/11/23 13:29:05;;;;;;;7.78;5.63;;;7.70;99.90;;;;;;6163415;28;20057;-82
2021/11/23 13:32:06;;;;;;;18.30;11.27;;;7.20;99.90;;;;;;6165683;28;20039;-82
2021/11/23 13:35:08;;;;;;;8.85;7.38;;;7.10;99.90;;;;;;6162684;28;20022;-81
2021/11/23 13:38:24;;;;;;;7.72;6.40;;;7.00;99.90;;;;;;6164149;28;20124;-81
2021/11/23 13:41:42;;;;;;;7.28;6.13;;;7.00;99.90;;;;;;6179599;28;20034;-81
2021/11/23 13:44:43;;;;;;;6.88;6.10;;;8.10;99.90;;;;;;6180184;28;20030;-81
2021/11/23 13:47:44;;;;;;;7.25;5.55;;;7.30;99.90;;;;;;6163912;28;20384;-81
2021/11/23 13:50:58;;;;;;;5.90;5.18;;;7.80;99.90;;;;;;6163862;28;20041;-84
2021/11/23 13:54:15;;;;;;;8.05;6.13;;;6.90;99.90;;;;;;6163155;28;20033;-82
2021/11/23 13:57:19;;;;;;;6.80;6.10;;;6.90;99.90;;;;;;6182066;28;20061;-82
2021/11/23 14:00:30;;;;;;;7.95;5.78;;;7.90;99.90;;;;;;6163071;28;20030;-81
2021/11/23 14:03:30;;;;;;;8.00;5.93;;;7.10;99.90;;;;;;6178485;28;20038;-81
2021/11/23 14:06:31;;;;;;;7.97;6.03;;;;;;;;;;6177146;28;20080;-82
2021/11/23 14:09:50;;;;;;;7.05;5.63;;;6.90;99.90;;;;;;6178196;28;20034;-83
2021/11/23 14:12:50;;;;;;;6.93;5.90;;;6.80;99.90;;;;;;6147340;28;20428;-84
2021/11/23 14:15:59;;;;;;;8.88;6.75;;;8.00;99.90;;;;;;6163220;28;20034;-82
2021/11/23 14:19:08;;;;;;;10.15;8.93;;;6.90;99.90;;;;;;6163299;28;20370;-84
2021/11/23 14:22:08;;;;;;;7.28;6.03;;;6.90;99.90;;;;;;6162956;28;20125;-83
2021/11/23 14:25:20;;;;;;;7.60;6.80;;;6.90;99.90;;;;;;6161888;28;20497;-83
2021/11/23 14:28:21;;;;;;;7.03;5.55;;;;;;;;;;6178542;28;20480;-82
2021/11/23 14:31:24;;;;;;;7.93;6.22;;;6.80;99.90;;;;;;6178454;28;20157;-83
2021/11/23 14:34:26;;;;;;;7.20;6.30;;;6.60;99.90;;;;;;6162532;28;20026;-83
2021/11/23 14:37:27;;;;;;;8.77;6.50;;;;;;;;;;6146078;28;20034;-84
2021/11/23 14:40:28;;;;;;;8.57;7.05;;;;;;;;;;6178753;28;20034;-83
2021/11/23 14:43:29;;;;;;;10.48;7.00;;;6.80;99.90;;;;;;6178383;28;20050;-83
2021/11/23 14:46:29;;;;;;;7.85;6.75;;;6.50;99.90;;;;;;6178239;28;20077;-83
2021/11/23 14:49:31;;;;;;;9.25;6.25;;;8.00;99.90;;;;;;6178536;28;20033;-84
2021/11/23 14:52:32;;;;;;;7.33;6.33;;;6.30;99.90;;;;;;6178308;28;20031;-83
2021/11/23 14:55:33;;;;;;;12.07;6.60;;;6.10;99.90;;;;;;6160737;28;20034;-82
2021/11/23 14:58:33;;;;;;;7.22;6.28;;;6.20;99.90;;;;;;6160660;28;20065;-83
2021/11/23 15:01:34;;;;;;;7.63;6.82;;;;;;;;;;6161146;28;20034;-86
2021/11/23 15:04:35;;;;;;;8.13;6.90;;;6.10;99.90;;;;;;6162323;28;20041;-86
2021/11/23 15:07:36;;;;;;;8.02;6.90;;;;;;;;;;6178244;28;20473;-86
2021/11/23 15:10:37;;;;;;;14.77;9.00;;;5.90;99.90;;;;;;6162014;28;20125;-83
2021/11/23 15:13:38;;;;;;;9.10;7.75;;;5.60;99.90;;;;;;6177726;28;20156;-84
2021/11/23 15:16:40;;;;;;;7.03;6.10;;;;;;;;;;6177892;28;20378;-83
2021/11/23 15:19:40;;;;;;;10.10;7.07;;;5.40;99.90;;;;;;6177816;28;20469;-83
2021/11/23 15:22:42;;;;;;;8.32;7.15;;;;;;;;;;6177657;28;20046;-83
2021/11/23 15:25:43;;;;;;;8.50;6.88;;;;;;;;;;6177554;28;20030;-82
2021/11/23 15:28:44;;;;;;;9.30;6.97;;;5.00;99.90;;;;;;6161355;28;20152;-82
2021/11/23 15:31:46;;;;;;;8.48;6.97;;;;;;;;;;6160683;28;20710;-83
2021/11/23 15:34:47;;;;;;;9.75;7.22;;;;;;;;;;6192758;28;20019;-83
2021/11/23 15:37:48;;;;;;;8.98;6.97;;;;;;;;;;6177249;28;20125;-82
2021/11/23 15:40:50;;;;;;;8.35;6.68;;;;;;;;;;6178169;28;20034;-83
2021/11/23 15:43:51;;;;;;;8.55;7.35;;;4.90;99.90;;;;;;6177026;28;20045;-82
2021/11/23 15:46:51;;;;;;;9.43;7.07;;;6.50;99.90;;;;;;6177314;28;20058;-82
2021/11/23 15:49:52;;;;;;;9.82;7.63;;;7.30;99.90;;;;;;6177150;28;20026;-82
2021/11/23 15:52:53;;;;;;;8.80;7.65;;;4.60;99.90;;;;;;6177159;28;20065;-83
2021/11/23 15:55:54;;;;;;;11.40;7.95;;;5.80;99.90;;;;;;6160464;28;20374;-82
2021/11/23 15:58:54;;;;;;;8.73;7.28;;;5.90;99.90;;;;;;6175452;28;20031;-81
2021/11/23 16:01:55;;;;;;;11.02;7.90;;;4.20;99.90;;;;;;6176783;28;20033;-82
2021/11/23 16:04:56;;;;;;;9.73;7.15;;;;;;;;;;6160417;28;20030;-82
2021/11/23 16:07:57;;;;;;;11.18;8.18;;;;;;;;;;6161122;28;20113;-82
2021/11/23 16:10:58;;;;;;;11.95;7.53;;;3.90;99.90;;;;;;6177223;28;20026;-83
2021/11/23 16:13:59;;;;;;;9.65;7.53;;;3.70;99.90;;;;;;6160428;28;20065;-82
2021/11/23 16:17:00;;;;;;;10.32;8.05;;;;;;;;;;6176776;28;20030;-82
2021/11/23 16:20:01;;;;;;;11.68;7.88;;;;;;;;;;6176793;28;20117;-82
2021/11/23 16:23:02;;;;;;;11.57;8.60;;;;;;;;;;6176619;28;20038;-80
2021/11/23 16:26:04;;;;;;;9.27;7.25;;;3.70;99.90;;;;;;6160264;28;20382;-82
2021/11/23 16:29:09;;;;;;;10.48;8.18;;;;;;;;;;6176116;28;20037;-82
2021/11/23 16:32:10;;;;;;;9.95;7.55;;;;;;;;;;6176953;28;20451;-82
2021/11/23 16:35:11;;;;;;;10.52;8.05;;;3.60;99.90;;;;;;6174734;28;20021;-85
2021/11/23 16:38:13;;;;;;;11.40;7.63;;;;;;;;;;6174724;28;20031;-81
2021/11/23 16:41:14;;;;;;;18.47;12.30;;;;;;;;;;6177158;28;20030;-81
2021/11/23 16:44:15;;;;;;;10.57;7.97;;;2.90;99.90;;;;;;6174785;28;20728;-81